createdAt,value
2022-12-27T00:00:11.058Z,13.01
2022-12-27T00:01:32.622Z,13.91
2022-12-27T00:02:53.917Z,14.24
2022-12-27T00:04:15.072Z,11.43
2022-12-27T00:05:36.012Z,14.24
2022-12-27T00:06:57.065Z,12.77
2022-12-27T00:08:18.603Z,12.51
2022-12-27T00:09:40.076Z,12.87
2022-12-27T00:12:20.799Z,13.80
2022-12-27T00:13:42.398Z,13.56
2022-12-27T00:15:04.599Z,13.31
2022-12-27T00:16:26.509Z,12.90
2022-12-27T00:17:47.644Z,12.08
2022-12-27T00:19:08.767Z,13.12
2022-12-27T00:20:30.142Z,13.58
2022-12-27T00:21:51.414Z,11.96
2022-12-27T00:23:12.927Z,13.65
2022-12-27T00:24:34.489Z,13.23
2022-12-27T00:27:19.581Z,12.24
2022-12-27T00:28:41.017Z,13.31
2022-12-27T00:30:03.349Z,20.69
2022-12-27T00:31:25.907Z,15.35
2022-12-27T00:32:47.084Z,16.32
2022-12-27T00:34:08.688Z,15.75
2022-12-27T00:35:30.499Z,19.57
2022-12-27T00:36:52.303Z,15.32
2022-12-27T00:38:13.653Z,16.36
2022-12-27T00:39:34.946Z,20.46
2022-12-27T00:40:56.734Z,15.04
2022-12-27T00:42:18.448Z,34.09
2022-12-27T00:43:39.558Z,33.07
2022-12-27T00:45:00.908Z,17.82
2022-12-27T00:46:22.383Z,24.20
2022-12-27T00:47:43.736Z,25.36
2022-12-27T00:49:05.424Z,33.24
2022-12-27T00:50:27.089Z,22.99
2022-12-27T00:51:48.394Z,18.95
2022-12-27T00:53:09.949Z,22.57
2022-12-27T00:54:31.162Z,17.45
2022-12-27T00:55:52.258Z,17.48
2022-12-27T00:57:13.550Z,14.31
2022-12-27T00:58:40.490Z,17.82
2022-12-27T00:59:58.349Z,15.34
2022-12-27T01:01:20.086Z,13.86
2022-12-27T01:02:41.207Z,14.27
2022-12-27T01:04:02.162Z,14.05
2022-12-27T01:05:23.572Z,11.77
2022-12-27T01:06:45.213Z,12.83
2022-12-27T01:08:06.495Z,11.93
2022-12-27T01:09:28.074Z,11.86
2022-12-27T01:10:49.675Z,12.43
2022-12-27T01:12:10.963Z,12.04
2022-12-27T01:13:32.648Z,14.12
2022-12-27T01:14:53.971Z,11.99
2022-12-27T01:16:19.574Z,10.39
2022-12-27T01:17:40.899Z,12.37
2022-12-27T01:19:01.754Z,12.39
2022-12-27T01:20:23.354Z,12.86
2022-12-27T01:21:44.846Z,12.26
2022-12-27T01:23:06.258Z,13.20
2022-12-27T01:24:27.882Z,11.68
2022-12-27T01:25:49.242Z,11.38
2022-12-27T01:27:10.318Z,11.49
2022-12-27T01:28:31.611Z,11.55
2022-12-27T01:29:52.652Z,13.35
2022-12-27T01:31:18.169Z,13.49
2022-12-27T01:32:39.164Z,10.84
2022-12-27T01:34:00.629Z,11.35
2022-12-27T01:35:22.010Z,16.86
2022-12-27T01:36:43.980Z,18.92
2022-12-27T01:38:05.127Z,18.72
2022-12-27T01:39:26.589Z,19.78
2022-12-27T01:40:47.915Z,17.11
2022-12-27T01:43:36.879Z,17.77
2022-12-27T01:44:58.313Z,12.76
2022-12-27T01:46:20.155Z,14.97
2022-12-27T01:48:06.196Z,15.42
2022-12-27T01:49:27.241Z,14.69
2022-12-27T01:52:01.494Z,22.69
2022-12-27T01:53:25.123Z,19.04
2022-12-27T01:54:46.665Z,25.98
2022-12-27T01:56:26.337Z,18.36
2022-12-27T01:57:47.765Z,27.57
2022-12-27T01:59:08.844Z,27.99
2022-12-27T02:00:30.161Z,24.59
2022-12-27T02:01:51.513Z,22.27
2022-12-27T02:03:14.109Z,23.08
2022-12-27T02:04:35.250Z,21.95
2022-12-27T02:05:57.069Z,20.01
2022-12-27T02:07:20.288Z,16.28
2022-12-27T02:10:21.569Z,19.16
2022-12-27T02:11:44.979Z,20.49
2022-12-27T02:13:06.231Z,19.89
2022-12-27T02:14:41.376Z,20.88
2022-12-27T02:16:14.869Z,19.58
2022-12-27T02:17:36.116Z,20.82
2022-12-27T02:18:57.119Z,23.78
2022-12-27T02:20:21.451Z,27.74
2022-12-27T02:23:17.553Z,23.15
2022-12-27T02:24:45.671Z,25.67
2022-12-27T02:26:44.883Z,21.77
2022-12-27T02:28:15.552Z,19.62
2022-12-27T02:29:45.188Z,20.08
2022-12-27T02:31:09.883Z,19.83
2022-12-27T02:32:34.691Z,20.31
2022-12-27T02:33:55.930Z,20.64
2022-12-27T02:35:23.590Z,20.28
2022-12-27T02:36:45.806Z,18.17
2022-12-27T02:38:10.800Z,18.86
2022-12-27T02:39:33.803Z,16.74
2022-12-27T02:40:55.409Z,16.27
2022-12-27T02:42:17.036Z,13.70
2022-12-27T02:43:38.467Z,16.46
2022-12-27T02:45:00.618Z,14.17
2022-12-27T02:46:25.719Z,13.20
2022-12-27T02:47:47.817Z,12.35
2022-12-27T02:49:35.803Z,14.96
2022-12-27T02:51:25.227Z,16.24
2022-12-27T02:52:52.313Z,14.34
2022-12-27T02:54:25.952Z,12.59
2022-12-27T02:57:19.694Z,11.84
2022-12-27T02:59:08.246Z,12.67
2022-12-27T03:00:30.004Z,11.95
2022-12-27T03:02:14.805Z,12.41
2022-12-27T03:03:45.706Z,13.96
2022-12-27T03:05:27.175Z,12.40
2022-12-27T03:07:01.150Z,14.51
2022-12-27T03:08:26.217Z,11.30
2022-12-27T03:10:10.673Z,12.51
2022-12-27T03:13:08.798Z,9.83
2022-12-27T03:14:35.576Z,11.93
2022-12-27T03:16:15.630Z,12.78
2022-12-27T03:17:40.136Z,10.30
2022-12-27T03:19:12.651Z,11.49
2022-12-27T03:20:33.986Z,10.24
2022-12-27T03:21:55.153Z,12.58
2022-12-27T03:23:16.810Z,9.76
2022-12-27T03:24:38.475Z,9.57
2022-12-27T03:26:00.343Z,11.61
2022-12-27T03:28:34.913Z,8.12
2022-12-27T03:29:57.408Z,11.42
2022-12-27T03:31:26.887Z,10.26
2022-12-27T03:32:51.399Z,12.63
2022-12-27T03:34:15.706Z,11.01
2022-12-27T03:35:55.843Z,12.47
2022-12-27T03:38:41.979Z,10.35
2022-12-27T03:40:16.412Z,12.28
2022-12-27T03:41:40.149Z,13.01
2022-12-27T03:44:17.049Z,9.39
2022-12-27T03:45:51.026Z,9.98
2022-12-27T03:47:24.588Z,11.66
2022-12-27T03:50:17.729Z,10.72
2022-12-27T03:52:18.748Z,11.08
2022-12-27T03:53:41.450Z,10.23
2022-12-27T03:56:23.610Z,10.06
2022-12-27T03:57:44.765Z,11.61
2022-12-27T03:59:06.250Z,11.09
2022-12-27T04:00:27.897Z,11.37
2022-12-27T04:01:48.940Z,10.62
2022-12-27T04:03:10.505Z,11.91
2022-12-27T04:04:31.918Z,12.97
2022-12-27T04:05:53.446Z,11.26
2022-12-27T04:07:14.892Z,10.71
2022-12-27T04:08:36.111Z,10.83
2022-12-27T04:09:57.116Z,10.77
2022-12-27T04:11:18.179Z,11.91
2022-12-27T04:12:39.368Z,10.52
2022-12-27T04:14:00.823Z,9.76
2022-12-27T04:15:22.572Z,13.30
2022-12-27T04:16:44.201Z,11.36
2022-12-27T04:18:05.436Z,9.20
2022-12-27T04:19:27.045Z,8.86
2022-12-27T04:20:49.187Z,9.23
2022-12-27T04:22:10.232Z,14.46
2022-12-27T04:23:31.240Z,9.47
2022-12-27T04:24:52.630Z,8.61
2022-12-27T04:26:15.762Z,8.89
2022-12-27T04:27:37.103Z,9.80
2022-12-27T04:28:58.310Z,9.55
2022-12-27T04:30:20.172Z,9.09
2022-12-27T04:31:41.661Z,8.87
2022-12-27T04:33:03.004Z,7.49
2022-12-27T04:34:23.985Z,8.57
2022-12-27T04:35:45.447Z,9.16
2022-12-27T04:37:06.853Z,9.39
2022-12-27T04:38:28.414Z,9.91
2022-12-27T04:39:49.869Z,8.91
2022-12-27T04:41:11.490Z,10.88
2022-12-27T04:42:32.602Z,9.14
2022-12-27T04:43:54.423Z,7.69
2022-12-27T04:45:15.871Z,8.24
2022-12-27T04:46:37.298Z,9.56
2022-12-27T04:47:58.490Z,8.98
2022-12-27T04:49:23.858Z,8.35
2022-12-27T04:50:45.435Z,8.93
2022-12-27T04:53:28.040Z,9.41
2022-12-27T04:54:49.752Z,8.56
2022-12-27T04:56:12.586Z,7.52
2022-12-27T04:57:33.680Z,7.51
2022-12-27T04:58:55.195Z,7.51
2022-12-27T05:00:19.180Z,7.57
2022-12-27T05:01:40.687Z,8.67
2022-12-27T05:03:04.301Z,8.45
2022-12-27T05:04:25.688Z,8.16
2022-12-27T05:05:47.144Z,8.81
2022-12-27T05:07:09.860Z,7.72
2022-12-27T05:08:31.104Z,8.55
2022-12-27T05:10:18.483Z,8.73
2022-12-27T05:11:41.505Z,8.79
2022-12-27T05:14:28.420Z,7.06
2022-12-27T05:15:50.174Z,9.09
2022-12-27T05:17:11.611Z,8.02
2022-12-27T05:18:33.039Z,8.63
2022-12-27T05:19:55.533Z,9.84
2022-12-27T05:21:16.898Z,9.26
2022-12-27T05:22:38.473Z,9.16
2022-12-27T05:24:05.145Z,8.22
2022-12-27T05:25:23.374Z,8.23
2022-12-27T05:26:44.916Z,7.48
2022-12-27T05:28:10.638Z,8.69
2022-12-27T05:29:31.805Z,9.03
2022-12-27T05:30:53.371Z,8.62
2022-12-27T05:32:14.601Z,8.86
2022-12-27T05:33:35.592Z,10.17
2022-12-27T05:34:57.166Z,7.83
2022-12-27T05:36:21.918Z,7.98
2022-12-27T05:37:43.327Z,7.71
2022-12-27T05:39:04.844Z,7.28
2022-12-27T05:40:26.282Z,8.22
2022-12-27T05:41:47.282Z,7.61
2022-12-27T05:43:08.590Z,8.57
2022-12-27T05:44:30.974Z,8.79
2022-12-27T05:45:52.276Z,8.29
2022-12-27T05:47:13.389Z,10.71
2022-12-27T05:48:34.491Z,11.92
2022-12-27T05:49:55.806Z,12.36
2022-12-27T05:51:19.123Z,15.43
2022-12-27T05:52:41.295Z,15.59
2022-12-27T05:54:06.955Z,9.87
2022-12-27T05:55:28.408Z,9.82
2022-12-27T05:56:49.827Z,9.78
2022-12-27T05:58:11.200Z,8.17
2022-12-27T05:59:32.549Z,8.55
2022-12-27T06:00:54.442Z,10.73
2022-12-27T06:02:16.170Z,10.67
2022-12-27T06:03:37.451Z,11.43
2022-12-27T06:04:58.588Z,10.37
2022-12-27T06:06:21.544Z,10.68
2022-12-27T06:07:42.650Z,9.62
2022-12-27T06:09:04.236Z,9.24
2022-12-27T06:10:25.933Z,8.98
2022-12-27T06:11:47.336Z,10.28
2022-12-27T06:13:08.724Z,9.97
2022-12-27T06:14:32.276Z,9.21
2022-12-27T06:15:53.494Z,8.90
2022-12-27T06:17:15.058Z,8.89
2022-12-27T06:18:37.410Z,8.49
2022-12-27T06:19:59.290Z,9.65
2022-12-27T06:21:21.311Z,10.45
2022-12-27T06:22:42.818Z,10.94
2022-12-27T06:24:04.937Z,12.90
2022-12-27T06:25:27.396Z,11.77
2022-12-27T06:28:10.050Z,13.24
2022-12-27T06:29:31.609Z,11.26
2022-12-27T06:30:53.002Z,12.96
2022-12-27T06:32:14.119Z,13.26
2022-12-27T06:33:40.254Z,10.74
2022-12-27T06:35:04.939Z,13.37
2022-12-27T06:36:26.080Z,11.57
2022-12-27T06:37:47.225Z,19.52
2022-12-27T06:39:08.824Z,15.98
2022-12-27T06:40:30.990Z,11.38
2022-12-27T06:41:52.659Z,9.13
2022-12-27T06:43:15.062Z,12.99
2022-12-27T06:44:36.627Z,11.81
2022-12-27T06:46:05.903Z,13.41
2022-12-27T06:47:32.700Z,12.89
2022-12-27T06:48:54.271Z,13.18
2022-12-27T06:50:16.586Z,14.69
2022-12-27T06:51:40.391Z,12.10
2022-12-27T06:53:01.678Z,12.12
2022-12-27T06:54:24.858Z,12.78
2022-12-27T06:55:45.930Z,11.50
2022-12-27T06:57:11.722Z,11.99
2022-12-27T06:58:36.139Z,12.88
2022-12-27T07:01:43.797Z,10.36
2022-12-27T07:03:07.394Z,11.99
2022-12-27T07:04:28.867Z,9.83
2022-12-27T07:05:50.462Z,8.51
2022-12-27T07:07:15.637Z,9.84
2022-12-27T07:10:19.884Z,12.65
2022-12-27T07:11:43.968Z,11.11
2022-12-27T07:13:08.109Z,10.30
2022-12-27T07:14:31.229Z,11.23
2022-12-27T07:15:53.080Z,10.60
2022-12-27T07:17:14.815Z,8.13
2022-12-27T07:18:37.361Z,8.96
2022-12-27T07:20:01.154Z,9.63
2022-12-27T07:21:41.486Z,9.49
2022-12-27T07:23:03.363Z,8.93
2022-12-27T07:24:25.785Z,8.64
2022-12-27T07:25:47.362Z,9.61
2022-12-27T07:27:10.140Z,9.13
2022-12-27T07:28:31.614Z,9.46
2022-12-27T07:29:52.853Z,8.59
2022-12-27T07:31:18.930Z,7.74
2022-12-27T07:32:40.450Z,9.67
2022-12-27T07:34:02.885Z,11.02
2022-12-27T07:35:25.110Z,7.88
2022-12-27T07:36:48.290Z,8.73
2022-12-27T07:38:10.260Z,8.13
2022-12-27T07:39:39.280Z,8.55
2022-12-27T07:41:01.740Z,7.23
2022-12-27T07:42:26.772Z,6.54
2022-12-27T07:43:58.307Z,6.99
2022-12-27T07:45:25.854Z,7.12
2022-12-27T07:46:47.473Z,7.09
2022-12-27T07:48:12.066Z,6.99
2022-12-27T07:49:33.259Z,6.49
2022-12-27T07:50:54.723Z,7.14
2022-12-27T07:52:16.164Z,6.59
2022-12-27T07:55:23.588Z,6.68
2022-12-27T07:56:49.593Z,6.51
2022-12-27T07:58:12.095Z,5.47
2022-12-27T08:02:13.284Z,5.31
2022-12-27T08:03:34.896Z,4.83
2022-12-27T08:05:01.404Z,5.13
2022-12-27T08:06:31.353Z,6.83
2022-12-27T08:08:02.920Z,6.64
2022-12-27T08:09:27.357Z,4.99
2022-12-27T08:10:48.876Z,6.16
2022-12-27T08:12:11.576Z,6.50
2022-12-27T08:13:34.890Z,5.84
2022-12-27T08:15:01.947Z,5.22
2022-12-27T08:18:15.822Z,5.13
2022-12-27T08:19:48.320Z,5.10
2022-12-27T08:21:12.822Z,5.24
2022-12-27T08:22:34.830Z,4.74
2022-12-27T08:24:05.895Z,5.17
2022-12-27T08:25:32.830Z,6.41
2022-12-27T08:27:00.538Z,6.92
2022-12-27T08:28:23.125Z,4.61
2022-12-27T08:35:25.208Z,5.51
2022-12-27T08:38:32.709Z,4.56
2022-12-27T08:40:05.789Z,3.89
2022-12-27T08:41:46.559Z,4.76
2022-12-27T08:45:00.786Z,4.38
2022-12-27T08:48:10.181Z,3.89
2022-12-27T08:49:34.729Z,4.99
2022-12-27T08:50:59.500Z,4.61
2022-12-27T08:52:24.375Z,4.12
2022-12-27T08:53:54.007Z,4.44
2022-12-27T08:59:01.810Z,5.08
2022-12-27T09:09:02.507Z,3.50
2022-12-27T09:12:11.839Z,3.90
2022-12-27T09:24:15.538Z,3.61
2022-12-27T09:25:42.639Z,3.72
2022-12-27T09:28:54.464Z,3.88
2022-12-27T09:30:19.415Z,3.83
2022-12-27T09:31:42.193Z,3.71
2022-12-27T09:33:06.150Z,3.42
2022-12-27T09:34:32.470Z,4.13
2022-12-27T09:36:07.844Z,3.85
2022-12-27T09:37:29.191Z,3.16
2022-12-27T09:39:04.498Z,3.73
2022-12-27T09:40:25.985Z,3.37
2022-12-27T09:45:07.712Z,2.46
2022-12-27T09:48:04.026Z,7.49
2022-12-27T09:50:56.750Z,3.72
2022-12-27T09:52:24.283Z,3.74
2022-12-27T09:55:41.895Z,5.65
2022-12-27T09:59:23.546Z,4.13
2022-12-27T10:09:44.669Z,4.51
2022-12-27T10:12:32.214Z,4.08
2022-12-27T10:13:56.266Z,3.85
2022-12-27T10:15:29.939Z,3.64
2022-12-27T10:16:58.192Z,3.92
2022-12-27T10:18:31.950Z,3.08
2022-12-27T10:20:16.499Z,3.97
2022-12-27T10:21:40.965Z,3.24
2022-12-27T10:23:06.438Z,6.22
2022-12-27T10:24:44.935Z,3.25
2022-12-27T10:26:15.673Z,2.75
2022-12-27T10:27:37.079Z,3.56
2022-12-27T12:47:46.613Z,5.27
2022-12-27T13:01:05.408Z,4.75
2022-12-27T13:04:05.001Z,5.35
2022-12-27T13:05:46.082Z,4.70
2022-12-27T13:07:12.102Z,8.85
2022-12-27T13:09:00.947Z,5.56
2022-12-27T13:11:00.822Z,9.29
2022-12-27T13:12:44.984Z,6.19
2022-12-27T13:14:41.902Z,6.64
2022-12-27T13:16:42.104Z,6.46
2022-12-27T13:18:40.597Z,6.03
2022-12-27T13:20:08.706Z,8.93
2022-12-27T13:21:56.158Z,7.08
2022-12-27T13:23:38.100Z,6.17
2022-12-27T13:25:19.627Z,6.01
2022-12-27T13:27:04.517Z,4.23
2022-12-27T13:28:34.796Z,6.99
2022-12-27T13:30:19.959Z,6.29
2022-12-27T13:32:02.882Z,7.72
2022-12-27T13:34:01.303Z,4.85
2022-12-27T13:37:02.262Z,5.87
2022-12-27T13:38:50.579Z,7.37
2022-12-27T13:41:48.238Z,8.22
2022-12-27T13:43:36.224Z,5.65
2022-12-27T13:45:22.010Z,6.21
2022-12-27T13:47:15.545Z,6.23
2022-12-27T13:48:46.521Z,8.19
2022-12-27T13:50:17.205Z,7.12
2022-12-27T13:51:44.102Z,5.45
2022-12-27T13:53:24.445Z,6.11
2022-12-27T13:55:01.728Z,9.37
2022-12-27T13:56:57.499Z,6.77
2022-12-27T13:58:34.297Z,6.16
2022-12-27T14:00:17.759Z,7.08
2022-12-27T14:01:51.605Z,7.07
2022-12-27T14:07:20.531Z,8.13
2022-12-27T14:09:01.229Z,8.46
2022-12-27T14:12:16.137Z,5.01
2022-12-27T14:13:57.067Z,15.29
2022-12-27T14:17:24.743Z,6.24
2022-12-27T14:19:11.952Z,6.30
2022-12-27T14:23:51.356Z,8.71
2022-12-27T14:25:33.007Z,5.49
2022-12-27T14:27:21.252Z,7.50
2022-12-27T14:29:20.743Z,10.07
2022-12-27T14:30:48.716Z,5.77
2022-12-27T14:32:42.723Z,5.77
2022-12-27T14:34:22.946Z,5.43
2022-12-27T14:35:56.929Z,6.80
2022-12-27T14:37:34.126Z,6.21
2022-12-27T14:39:02.342Z,6.84
2022-12-27T14:40:50.626Z,6.26
2022-12-27T14:42:16.146Z,7.22
2022-12-27T14:43:41.240Z,5.83
2022-12-27T14:46:52.644Z,4.19
2022-12-27T14:48:36.519Z,5.32
2022-12-27T14:50:16.508Z,6.33
2022-12-27T14:52:12.894Z,7.23
2022-12-27T14:54:09.060Z,7.79
2022-12-27T14:55:50.368Z,5.89
2022-12-27T14:57:33.810Z,7.19
2022-12-27T14:59:29.745Z,5.67
2022-12-27T15:01:07.707Z,5.38
2022-12-27T15:03:00.870Z,4.47
2022-12-27T15:04:42.427Z,7.52
2022-12-27T15:06:27.212Z,6.68
2022-12-27T15:08:16.912Z,4.72
2022-12-27T15:10:06.106Z,3.78
2022-12-27T15:11:36.705Z,6.13
2022-12-27T15:13:04.626Z,5.54
2022-12-27T15:14:30.012Z,6.97
2022-12-27T15:16:14.972Z,4.77
2022-12-27T15:17:36.645Z,5.67
2022-12-27T15:19:19.672Z,5.67
2022-12-27T15:20:44.704Z,4.78
2022-12-27T15:22:21.780Z,4.88
2022-12-27T15:23:56.597Z,5.19
2022-12-27T15:25:21.857Z,5.63
2022-12-27T15:26:53.193Z,6.72
2022-12-27T15:28:21.302Z,5.20
2022-12-27T15:29:52.467Z,5.61
2022-12-27T15:31:20.006Z,5.42
2022-12-27T15:33:04.285Z,6.42
2022-12-27T15:34:32.428Z,6.10
2022-12-27T15:36:06.509Z,6.07
2022-12-27T15:37:48.008Z,4.31
2022-12-27T15:40:37.355Z,6.13
2022-12-27T15:42:20.358Z,6.04
2022-12-27T15:44:02.169Z,5.77
2022-12-27T15:45:39.818Z,5.52
2022-12-27T15:47:14.049Z,6.02
2022-12-27T15:48:53.970Z,4.80
2022-12-27T15:50:35.357Z,4.91
2022-12-27T15:52:12.248Z,4.43
2022-12-27T15:53:39.954Z,6.06
2022-12-27T15:55:23.106Z,6.64
2022-12-27T15:57:03.062Z,5.51
2022-12-27T15:58:24.681Z,4.01
2022-12-27T15:59:56.922Z,5.28
2022-12-27T16:01:28.871Z,5.76
2022-12-27T16:02:54.139Z,4.89
2022-12-27T16:04:48.299Z,6.21
2022-12-27T16:07:59.523Z,4.79
2022-12-27T16:09:27.270Z,3.64
2022-12-27T16:10:50.008Z,5.09
2022-12-27T16:12:12.144Z,5.24
2022-12-27T16:13:41.768Z,5.12
2022-12-27T16:15:36.099Z,4.76
2022-12-27T16:17:18.353Z,5.47
2022-12-27T16:18:49.532Z,3.97
2022-12-27T16:21:37.182Z,5.38
2022-12-27T16:24:16.698Z,7.18
2022-12-27T16:25:41.375Z,4.58
2022-12-27T16:27:03.320Z,5.26
2022-12-27T16:28:25.658Z,5.41
2022-12-27T16:29:46.931Z,5.43
2022-12-27T16:31:10.450Z,6.84
2022-12-27T16:32:31.871Z,5.08
2022-12-27T16:33:57.877Z,6.39
2022-12-27T16:35:19.274Z,5.25
2022-12-27T16:36:45.062Z,4.93
2022-12-27T16:38:09.934Z,4.85
2022-12-27T16:39:51.322Z,4.02
2022-12-27T21:59:07.941Z,9.45
2022-12-27T22:00:29.315Z,9.04
2022-12-27T22:01:52.627Z,8.13
2022-12-27T22:03:13.719Z,7.39
2022-12-27T22:04:34.906Z,9.24
2022-12-27T22:05:55.944Z,7.08
2022-12-27T22:07:17.178Z,8.16
2022-12-27T22:08:38.764Z,6.66
2022-12-27T22:10:00.125Z,8.49
2022-12-27T22:11:21.535Z,8.65
2022-12-27T22:12:42.932Z,9.30
2022-12-27T22:14:04.559Z,7.71
2022-12-27T22:15:26.023Z,9.40
2022-12-27T22:16:47.658Z,7.69
2022-12-27T22:18:09.068Z,8.46
2022-12-27T22:19:30.512Z,8.32
2022-12-27T22:20:52.370Z,9.94
2022-12-27T22:22:13.574Z,7.56
2022-12-27T22:24:47.379Z,8.89
2022-12-27T22:26:10.965Z,7.29
2022-12-27T22:27:32.528Z,7.64
2022-12-27T22:28:54.370Z,7.86
2022-12-27T22:30:16.480Z,7.77
2022-12-27T22:31:37.631Z,9.56
2022-12-27T22:32:59.267Z,9.40
2022-12-27T22:34:20.369Z,8.69
2022-12-27T22:35:41.690Z,8.99
2022-12-27T22:37:02.997Z,8.83
2022-12-27T22:38:24.662Z,9.19
2022-12-27T22:39:45.691Z,8.94
2022-12-27T22:42:23.251Z,10.77
2022-12-27T22:43:49.568Z,15.87
2022-12-27T22:45:11.163Z,9.77
2022-12-27T22:46:58.750Z,10.23
2022-12-27T22:47:56.011Z,9.63
2022-12-27T22:49:17.350Z,7.27
2022-12-27T22:50:38.971Z,8.33
2022-12-27T22:52:00.330Z,7.51
2022-12-27T22:53:21.590Z,8.03
2022-12-27T22:55:04.399Z,8.24
2022-12-27T22:56:13.995Z,8.12
2022-12-27T22:57:35.104Z,7.38
2022-12-27T22:58:56.426Z,8.01
2022-12-27T23:00:18.612Z,6.41
2022-12-27T23:01:40.593Z,7.39
2022-12-27T23:03:01.703Z,9.91
2022-12-27T23:04:23.073Z,9.04
2022-12-27T23:05:44.498Z,7.46
2022-12-27T23:07:05.588Z,6.07
2022-12-27T23:08:27.493Z,7.37
2022-12-27T23:09:48.837Z,8.58
2022-12-27T23:11:12.301Z,8.49
2022-12-27T23:13:56.125Z,7.08
2022-12-27T23:15:17.217Z,6.97
2022-12-27T23:16:41.082Z,8.22
2022-12-27T23:18:02.323Z,8.69
2022-12-27T23:19:24.004Z,9.19
2022-12-27T23:21:19.138Z,9.29
2022-12-27T23:22:09.072Z,8.71
2022-12-27T23:23:30.770Z,7.32
2022-12-27T23:24:51.991Z,8.18
2022-12-27T23:27:25.747Z,9.18
2022-12-27T23:28:47.463Z,7.72
2022-12-27T23:30:10.576Z,8.03
2022-12-27T23:31:31.807Z,9.92
2022-12-27T23:32:53.333Z,8.42
2022-12-27T23:34:14.730Z,9.01
2022-12-27T23:35:36.200Z,7.76
2022-12-27T23:36:57.842Z,7.76
2022-12-27T23:38:19.352Z,7.73
2022-12-27T23:39:40.459Z,9.47
2022-12-27T23:41:04.257Z,10.56
2022-12-27T23:42:25.359Z,8.52
2022-12-27T23:43:55.805Z,9.18
2022-12-27T23:46:32.640Z,7.27
2022-12-27T23:47:54.014Z,8.81
2022-12-27T23:49:15.513Z,10.02
2022-12-27T23:50:37.097Z,8.17
2022-12-27T23:51:58.212Z,7.93
2022-12-27T23:53:19.185Z,8.95
2022-12-27T23:54:40.162Z,8.18
2022-12-27T23:56:07.458Z,8.79
2022-12-27T23:57:28.533Z,8.92
2022-12-27T23:58:50.684Z,8.89
